Time,TemperatureF,DewpointF,PressureIn,WindDirection,WindDirectionDegrees,WindSpeedMPH,WindSpeedGustMPH,Humidity,HourlyPrecipIn,Conditions,Clouds,dailyrainin,SoftwareType,DateUTC
2013-01-31 06:01:00,40.0,38.0,30.20,ESE,121,0.0,3.0,94,0.00,,,0.00,,2013-01-31 14:01:00,
2013-01-31 06:11:00,40.0,38.0,30.20,ESE,121,0.0,3.0,94,0.00,,,0.00,,2013-01-31 14:11:00,
2013-01-31 06:21:00,39.0,37.0,30.20,ESE,121,0.0,0.0,94,0.00,,,0.00,,2013-01-31 14:21:00,
2013-01-31 06:31:00,39.0,38.0,30.20,ESE,121,0.0,0.0,95,0.00,,,0.00,,2013-01-31 14:31:00,
2013-01-31 06:41:00,39.0,38.0,30.20,ESE,121,0.0,0.0,95,0.00,,,0.00,,2013-01-31 14:41:00,
2013-01-31 06:52:00,38.0,37.0,30.20,ESE,121,0.0,0.0,95,0.00,,,0.00,,2013-01-31 14:52:00,
2013-01-31 07:02:00,38.0,37.0,30.20,ESE,121,0.0,0.0,96,0.00,,,0.00,,2013-01-31 15:02:00,
2013-01-31 07:11:00,39.0,38.0,30.20,ESE,121,0.0,0.0,96,0.00,,,0.00,,2013-01-31 15:11:00,
2013-01-31 07:21:00,39.0,38.0,30.20,ESE,121,0.0,0.0,96,0.00,,,0.00,,2013-01-31 15:21:00,
2013-01-31 07:32:00,39.0,38.0,30.21,NNW,341,0.0,3.0,96,0.00,,,0.00,,2013-01-31 15:32:00,
2013-01-31 07:42:00,39.0,38.0,30.21,NNW,341,0.0,3.0,96,0.00,,,0.00,,2013-01-31 15:42:00,
2013-01-31 07:51:00,40.0,39.0,30.22,NNW,341,0.0,0.0,96,0.00,,,0.00,,2013-01-31 15:51:00,
2013-01-31 08:03:00,39.0,38.0,30.22,SE,143,0.0,1.0,96,0.00,,,0.00,,2013-01-31 16:03:00,
2013-01-31 08:11:00,40.0,39.0,30.22,ENE,67,0.0,1.0,97,0.00,,,0.00,,2013-01-31 16:11:00,
2013-01-31 08:21:00,40.0,39.0,30.22,ENE,67,0.0,1.0,97,0.00,,,0.00,,2013-01-31 16:21:00,
2013-01-31 08:32:00,41.0,40.0,30.23,North,0,0.0,3.0,98,0.00,,,0.00,,2013-01-31 16:32:00,
2013-01-31 08:41:00,41.0,40.0,30.23,North,0,0.0,3.0,98,0.00,,,0.00,,2013-01-31 16:41:00,
2013-01-31 08:51:00,41.0,40.0,30.23,North,0,0.0,0.0,98,0.00,,,0.00,,2013-01-31 16:51:00,
2013-01-31 09:02:00,43.0,42.0,30.23,North,0,0.0,0.0,98,0.00,,,0.00,,2013-01-31 17:02:00,
2013-01-31 09:11:00,43.0,42.0,30.23,North,0,0.0,0.0,98,0.00,,,0.00,,2013-01-31 17:11:00,
2013-01-31 09:22:00,44.0,43.0,30.23,North,0,0.0,0.0,98,0.00,,,0.00,,2013-01-31 17:22:00,
2013-01-31 09:31:00,46.0,45.0,30.24,North,0,0.0,0.0,98,0.00,,,0.00,,2013-01-31 17:31:00,
2013-01-31 09:42:00,46.0,45.0,30.24,North,0,0.0,0.0,98,0.00,,,0.00,,2013-01-31 17:42:00,
2013-01-31 09:53:00,47.0,45.0,30.24,NW,320,1.0,1.0,93,0.00,,,0.00,,2013-01-31 17:53:00,
2013-01-31 10:02:00,50.0,46.0,30.24,NW,304,0.0,2.0,87,0.00,,,0.00,,2013-01-31 18:02:00,
2013-01-31 10:11:00,51.0,47.0,30.25,WSW,237,0.0,3.0,85,0.00,,,0.00,,2013-01-31 18:11:00,
2013-01-31 10:21:00,51.0,47.0,30.25,WSW,237,0.0,3.0,85,0.00,,,0.00,,2013-01-31 18:21:00,
2013-01-31 10:31:00,52.0,47.0,30.25,NW,318,2.0,3.0,84,0.00,,,0.00,,2013-01-31 18:31:00,
2013-01-31 10:42:00,52.0,47.0,30.25,NW,318,2.0,3.0,84,0.00,,,0.00,,2013-01-31 18:42:00,
2013-01-31 10:52:00,54.0,47.0,30.25,WNW,299,0.0,5.0,77,0.00,,,0.00,,2013-01-31 18:52:00,
2013-01-31 11:01:00,56.0,48.0,30.25,NW,305,2.0,4.0,75,0.00,,,0.00,,2013-01-31 19:01:00,
2013-01-31 11:11:00,56.0,48.0,30.25,NW,305,2.0,4.0,75,0.00,,,0.00,,2013-01-31 19:11:00,
2013-01-31 11:21:00,57.0,47.0,30.25,WNW,285,2.0,5.0,70,0.00,,,0.00,,2013-01-31 19:21:00,
2013-01-31 11:32:00,58.0,46.0,30.24,WSW,254,1.0,4.0,65,0.00,,,0.00,,2013-01-31 19:32:00,
2013-01-31 11:42:00,58.0,46.0,30.24,WSW,254,1.0,4.0,65,0.00,,,0.00,,2013-01-31 19:42:00,
2013-01-31 11:52:00,60.0,48.0,30.24,West,268,2.0,5.0,64,0.00,,,0.00,,2013-01-31 19:52:00,
2013-01-31 12:01:00,61.0,48.0,30.24,WSW,257,1.0,4.0,62,0.00,,,0.00,,2013-01-31 20:01:00,
2013-01-31 12:11:00,61.0,46.0,30.24,WSW,253,3.0,4.0,57,0.00,,,0.00,,2013-01-31 20:11:00,
2013-01-31 12:21:00,61.0,46.0,30.24,WSW,253,3.0,4.0,57,0.00,,,0.00,,2013-01-31 20:21:00,
2013-01-31 12:31:00,63.0,48.0,30.23,WSW,257,2.0,5.0,59,0.00,,,0.00,,2013-01-31 20:31:00,
2013-01-31 12:41:00,63.0,48.0,30.22,WSW,244,2.0,5.0,58,0.00,,,0.00,,2013-01-31 20:41:00,
2013-01-31 12:52:00,63.0,48.0,30.22,WSW,244,2.0,5.0,58,0.00,,,0.00,,2013-01-31 20:52:00,
2013-01-31 13:01:00,64.0,47.0,30.22,SW,234,3.0,7.0,54,0.00,,,0.00,,2013-01-31 21:01:00,
2013-01-31 13:11:00,65.0,49.0,30.21,SW,227,2.0,4.0,57,0.00,,,0.00,,2013-01-31 21:11:00,
2013-01-31 13:21:00,65.0,49.0,30.21,SW,227,2.0,4.0,57,0.00,,,0.00,,2013-01-31 21:21:00,
2013-01-31 13:31:00,64.0,47.0,30.21,WSW,248,3.0,8.0,54,0.00,,,0.00,,2013-01-31 21:31:00,
2013-01-31 13:42:00,64.0,47.0,30.21,WSW,248,3.0,8.0,54,0.00,,,0.00,,2013-01-31 21:42:00,
2013-01-31 13:52:00,64.0,47.0,30.20,WSW,251,1.0,5.0,54,0.00,,,0.00,,2013-01-31 21:52:00,
2013-01-31 14:02:00,64.0,47.0,30.19,WSW,248,4.0,6.0,53,0.00,,,0.00,,2013-01-31 22:02:00,
2013-01-31 14:11:00,66.0,49.0,30.19,West,274,5.0,7.0,54,0.00,,,0.00,,2013-01-31 22:11:00,
2013-01-31 14:21:00,66.0,49.0,30.19,West,274,5.0,7.0,54,0.00,,,0.00,,2013-01-31 22:21:00,
2013-01-31 14:32:00,67.0,50.0,30.19,NW,309,4.0,7.0,55,0.00,,,0.00,,2013-01-31 22:32:00,
2013-01-31 14:42:00,67.0,50.0,30.19,NW,309,4.0,7.0,55,0.00,,,0.00,,2013-01-31 22:42:00,
2013-01-31 14:51:00,66.0,48.0,30.19,NW,313,6.0,8.0,52,0.00,,,0.00,,2013-01-31 22:51:00,
2013-01-31 15:01:00,65.0,47.0,30.18,NW,307,3.0,7.0,53,0.00,,,0.00,,2013-01-31 23:01:00,
2013-01-31 15:11:00,65.0,47.0,30.18,NNW,342,4.0,8.0,52,0.00,,,0.00,,2013-01-31 23:11:00,
2013-01-31 15:21:00,65.0,47.0,30.18,NNW,342,4.0,8.0,52,0.00,,,0.00,,2013-01-31 23:21:00,
2013-01-31 15:31:00,64.0,46.0,30.18,NW,315,4.0,6.0,52,0.00,,,0.00,,2013-01-31 23:31:00,
2013-01-31 15:41:00,64.0,46.0,30.18,NW,315,4.0,6.0,52,0.00,,,0.00,,2013-01-31 23:41:00,
2013-01-31 15:52:00,63.0,47.0,30.17,NW,319,4.0,8.0,56,0.00,,,0.00,,2013-01-31 23:52:00,
2013-01-31 16:01:00,63.0,48.0,30.17,NW,309,4.0,7.0,57,0.00,,,0.00,,2013-02-01 00:01:00,
2013-01-31 16:11:00,63.0,48.0,30.17,NW,309,4.0,7.0,57,0.00,,,0.00,,2013-02-01 00:11:00,
2013-01-31 16:21:00,62.0,47.0,30.17,WNW,291,4.0,7.0,57,0.00,,,0.00,,2013-02-01 00:21:00,
2013-01-31 16:31:00,62.0,47.0,30.17,NW,313,5.0,6.0,58,0.00,,,0.00,,2013-02-01 00:31:00,
2013-01-31 16:41:00,62.0,47.0,30.17,NW,313,5.0,6.0,58,0.00,,,0.00,,2013-02-01 00:41:00,
2013-01-31 16:51:00,61.0,47.0,30.17,NW,317,3.0,7.0,60,0.00,,,0.00,,2013-02-01 00:51:00,
2013-01-31 17:01:00,60.0,47.0,30.16,NW,306,3.0,7.0,61,0.00,,,0.00,,2013-02-01 01:01:00,
2013-01-31 17:11:00,59.0,46.0,30.16,NW,304,2.0,3.0,62,0.00,,,0.00,,2013-02-01 01:11:00,
2013-01-31 17:21:00,59.0,46.0,30.16,NW,304,2.0,3.0,62,0.00,,,0.00,,2013-02-01 01:21:00,
2013-01-31 17:31:00,58.0,45.0,30.16,WNW,303,0.0,0.0,63,0.00,,,0.00,,2013-02-01 01:31:00,
2013-01-31 17:41:00,58.0,45.0,30.16,WNW,303,0.0,0.0,63,0.00,,,0.00,,2013-02-01 01:41:00,
2013-01-31 17:51:00,56.0,45.0,30.16,NNW,335,0.0,2.0,66,0.00,,,0.00,,2013-02-01 01:51:00,
2013-01-31 18:01:00,53.0,45.0,30.16,ESE,113,1.0,2.0,73,0.00,,,0.00,,2013-02-01 02:01:00,
2013-01-31 18:11:00,53.0,45.0,30.16,ESE,113,1.0,2.0,73,0.00,,,0.00,,2013-02-01 02:11:00,
2013-01-31 18:21:00,52.0,44.0,30.15,SSW,194,0.0,3.0,75,0.00,,,0.00,,2013-02-01 02:21:00,
2013-01-31 18:31:00,51.0,45.0,30.16,ENE,57,0.0,3.0,79,0.00,,,0.00,,2013-02-01 02:31:00,
2013-01-31 18:41:00,51.0,45.0,30.16,ENE,57,0.0,3.0,79,0.00,,,0.00,,2013-02-01 02:41:00,
2013-01-31 18:52:00,51.0,45.0,30.16,East,84,2.0,6.0,79,0.00,,,0.00,,2013-02-01 02:52:00,
2013-01-31 19:01:00,50.0,44.0,30.16,ESE,121,0.0,0.0,80,0.00,,,0.00,,2013-02-01 03:01:00,
2013-01-31 19:11:00,50.0,44.0,30.16,ESE,121,0.0,0.0,80,0.00,,,0.00,,2013-02-01 03:11:00,
2013-01-31 19:21:00,50.0,45.0,30.16,East,93,3.0,3.0,82,0.00,,,0.00,,2013-02-01 03:21:00,
2013-01-31 19:32:00,49.0,44.0,30.16,ENE,66,0.0,0.0,84,0.00,,,0.00,,2013-02-01 03:32:00,
2013-01-31 19:41:00,49.0,44.0,30.16,ENE,66,0.0,0.0,84,0.00,,,0.00,,2013-02-01 03:41:00,
2013-01-31 19:51:00,49.0,44.0,30.16,ENE,66,0.0,0.0,84,0.00,,,0.00,,2013-02-01 03:51:00,
2013-01-31 20:02:00,47.0,43.0,30.16,ENE,66,0.0,0.0,86,0.00,,,0.00,,2013-02-01 04:02:00,
2013-01-31 20:11:00,47.0,43.0,30.16,ENE,66,0.0,0.0,87,0.00,,,0.00,,2013-02-01 04:11:00,
2013-01-31 20:21:00,47.0,43.0,30.16,ENE,66,0.0,0.0,87,0.00,,,0.00,,2013-02-01 04:21:00,
2013-01-31 20:31:00,46.0,43.0,30.16,ENE,66,0.0,0.0,89,0.00,,,0.00,,2013-02-01 04:31:00,
2013-01-31 20:41:00,46.0,43.0,30.16,ENE,66,0.0,0.0,89,0.00,,,0.00,,2013-02-01 04:41:00,
2013-01-31 20:51:00,46.0,43.0,30.16,ENE,66,0.0,0.0,89,0.00,,,0.00,,2013-02-01 04:51:00,
2013-01-31 21:03:00,46.0,43.0,30.15,East,89,1.0,3.0,89,0.00,,,0.00,,2013-02-01 05:03:00,
2013-01-31 21:11:00,46.0,43.0,30.15,East,89,1.0,3.0,89,0.00,,,0.00,,2013-02-01 05:11:00,
2013-01-31 21:22:00,46.0,43.0,30.15,East,80,0.0,0.0,89,0.00,,,0.00,,2013-02-01 05:22:00,
2013-01-31 21:31:00,45.0,42.0,30.15,East,80,0.0,0.0,89,0.00,,,0.00,,2013-02-01 05:31:00,
2013-01-31 21:41:00,45.0,42.0,30.15,East,80,0.0,0.0,89,0.00,,,0.00,,2013-02-01 05:41:00,
2013-01-31 21:52:00,45.0,42.0,30.15,East,80,0.0,0.0,90,0.00,,,0.00,,2013-02-01 05:52:00,
2013-01-31 22:02:00,45.0,43.0,30.16,East,80,0.0,0.0,91,0.00,,,0.00,,2013-02-01 06:02:00,
2013-01-31 22:11:00,45.0,43.0,30.16,East,80,0.0,0.0,91,0.00,,,0.00,,2013-02-01 06:11:00,
2013-01-31 22:21:00,44.0,42.0,30.16,East,80,0.0,0.0,91,0.00,,,0.00,,2013-02-01 06:21:00,
2013-01-31 22:32:00,44.0,42.0,30.16,East,80,0.0,0.0,92,0.00,,,0.00,,2013-02-01 06:32:00,
2013-01-31 22:41:00,44.0,42.0,30.16,East,80,0.0,0.0,92,0.00,,,0.00,,2013-02-01 06:41:00,
2013-01-31 22:51:00,44.0,42.0,30.17,East,80,0.0,0.0,92,0.00,,,0.00,,2013-02-01 06:51:00,
2013-01-31 23:01:00,43.0,41.0,30.17,East,80,0.0,0.0,92,0.00,,,0.00,,2013-02-01 07:01:00,
2013-01-31 23:11:00,44.0,42.0,30.16,East,80,0.0,0.0,93,0.00,,,0.00,,2013-02-01 07:11:00,
2013-01-31 23:21:00,44.0,42.0,30.16,East,80,0.0,0.0,93,0.00,,,0.00,,2013-02-01 07:21:00,
2013-01-31 23:31:00,43.0,41.0,30.16,East,80,0.0,0.0,93,0.00,,,0.00,,2013-02-01 07:31:00,
2013-01-31 23:41:00,43.0,41.0,30.16,East,80,0.0,0.0,93,0.00,,,0.00,,2013-02-01 07:41:00,
2013-01-31 23:52:00,43.0,42.0,30.16,NE,36,0.0,0.0,95,0.00,,,0.00,,2013-02-01 07:52:00,